sensor_id;sensor_type;location;lat;lon;timestamp;temperature;humidity
29237;DHT22;16266;50.866;4.398;2023-11-21T00:00:55;11.50;99.90
29237;DHT22;16266;50.866;4.398;2023-11-21T00:03:20;11.50;99.90
29237;DHT22;16266;50.866;4.398;2023-11-21T00:05:48;11.60;99.90
29237;DHT22;16266;50.866;4.398;2023-11-21T00:08:14;11.50;99.90
29237;DHT22;16266;50.866;4.398;2023-11-21T00:10:40;11.60;99.90
29237;DHT22;16266;50.866;4.398;2023-11-21T00:13:06;11.50;99.90
29237;DHT22;16266;50.866;4.398;2023-11-21T00:15:33;11.40;99.90
29237;DHT22;16266;50.866;4.398;2023-11-21T00:17:59;11.40;99.90
29237;DHT22;16266;50.866;4.398;2023-11-21T00:20:25;11.30;99.90
29237;DHT22;16266;50.866;4.398;2023-11-21T00:22:51;11.20;99.90
29237;DHT22;16266;50.866;4.398;2023-11-21T00:25:16;11.20;99.90
29237;DHT22;16266;50.866;4.398;2023-11-21T00:27:43;11.20;99.90
29237;DHT22;16266;50.866;4.398;2023-11-21T00:30:09;11.10;99.90
29237;DHT22;16266;50.866;4.398;2023-11-21T00:32:37;11.00;99.90
29237;DHT22;16266;50.866;4.398;2023-11-21T00:35:03;11.00;99.90
29237;DHT22;16266;50.866;4.398;2023-11-21T00:37:29;10.90;99.90
29237;DHT22;16266;50.866;4.398;2023-11-21T00:39:57;10.90;99.90
29237;DHT22;16266;50.866;4.398;2023-11-21T00:42:23;10.90;99.90
29237;DHT22;16266;50.866;4.398;2023-11-21T00:44:49;10.80;99.90
29237;DHT22;16266;50.866;4.398;2023-11-21T00:47:14;10.70;99.90
29237;DHT22;16266;50.866;4.398;2023-11-21T00:49:40;10.60;99.90
29237;DHT22;16266;50.866;4.398;2023-11-21T00:52:06;10.40;99.90
29237;DHT22;16266;50.866;4.398;2023-11-21T00:54:32;10.30;99.90
29237;DHT22;16266;50.866;4.398;2023-11-21T00:56:59;10.20;99.90
29237;DHT22;16266;50.866;4.398;2023-11-21T00:59:24;10.10;99.90
29237;DHT22;16266;50.866;4.398;2023-11-21T01:01:50;10.10;99.90
29237;DHT22;16266;50.866;4.398;2023-11-21T01:04:16;10.10;99.90
29237;DHT22;16266;50.866;4.398;2023-11-21T01:06:41;10.00;99.90
29237;DHT22;16266;50.866;4.398;2023-11-21T01:09:07;9.90;99.90
29237;DHT22;16266;50.866;4.398;2023-11-21T01:11:34;9.90;99.90
29237;DHT22;16266;50.866;4.398;2023-11-21T01:14:03;10.00;99.90
29237;DHT22;16266;50.866;4.398;2023-11-21T01:16:29;10.10;99.90
29237;DHT22;16266;50.866;4.398;2023-11-21T01:18:55;10.10;99.90
29237;DHT22;16266;50.866;4.398;2023-11-21T01:21:20;10.20;99.90
29237;DHT22;16266;50.866;4.398;2023-11-21T01:23:48;10.20;99.90
29237;DHT22;16266;50.866;4.398;2023-11-21T01:26:13;10.30;99.90
29237;DHT22;16266;50.866;4.398;2023-11-21T01:28:39;10.30;99.90
29237;DHT22;16266;50.866;4.398;2023-11-21T01:31:05;10.40;99.90
29237;DHT22;16266;50.866;4.398;2023-11-21T01:33:32;10.40;99.90
29237;DHT22;16266;50.866;4.398;2023-11-21T01:35:58;10.50;99.90
29237;DHT22;16266;50.866;4.398;2023-11-21T01:38:25;10.50;99.90
29237;DHT22;16266;50.866;4.398;2023-11-21T01:40:51;10.60;99.90
29237;DHT22;16266;50.866;4.398;2023-11-21T01:43:17;10.60;99.90
29237;DHT22;16266;50.866;4.398;2023-11-21T01:45:42;10.60;99.90
29237;DHT22;16266;50.866;4.398;2023-11-21T01:48:10;10.70;99.90
29237;DHT22;16266;50.866;4.398;2023-11-21T01:50:36;10.60;99.90
29237;DHT22;16266;50.866;4.398;2023-11-21T01:53:02;10.70;99.90
29237;DHT22;16266;50.866;4.398;2023-11-21T01:55:28;10.70;99.90
29237;DHT22;16266;50.866;4.398;2023-11-21T01:57:56;10.70;99.90
29237;DHT22;16266;50.866;4.398;2023-11-21T02:00:22;10.70;99.90
29237;DHT22;16266;50.866;4.398;2023-11-21T02:02:49;10.70;99.90
29237;DHT22;16266;50.866;4.398;2023-11-21T02:05:16;10.70;99.90
29237;DHT22;16266;50.866;4.398;2023-11-21T02:07:45;10.80;99.90
29237;DHT22;16266;50.866;4.398;2023-11-21T02:10:15;10.90;99.90
29237;DHT22;16266;50.866;4.398;2023-11-21T02:12:42;10.90;99.90
29237;DHT22;16266;50.866;4.398;2023-11-21T02:15:09;10.90;99.90
29237;DHT22;16266;50.866;4.398;2023-11-21T02:17:42;10.90;99.90
29237;DHT22;16266;50.866;4.398;2023-11-21T02:20:12;10.90;99.90
29237;DHT22;16266;50.866;4.398;2023-11-21T02:22:41;11.00;99.90
29237;DHT22;16266;50.866;4.398;2023-11-21T02:25:08;11.00;99.90
29237;DHT22;16266;50.866;4.398;2023-11-21T02:27:34;11.10;99.90
29237;DHT22;16266;50.866;4.398;2023-11-21T02:29:59;11.00;99.90
29237;DHT22;16266;50.866;4.398;2023-11-21T02:32:26;11.00;99.90
29237;DHT22;16266;50.866;4.398;2023-11-21T02:34:52;10.90;99.90
29237;DHT22;16266;50.866;4.398;2023-11-21T02:37:19;10.80;99.90
29237;DHT22;16266;50.866;4.398;2023-11-21T02:39:45;10.80;99.90
29237;DHT22;16266;50.866;4.398;2023-11-21T02:42:11;10.80;99.90
29237;DHT22;16266;50.866;4.398;2023-11-21T02:44:36;10.80;99.90
29237;DHT22;16266;50.866;4.398;2023-11-21T02:47:02;10.80;99.90
29237;DHT22;16266;50.866;4.398;2023-11-21T02:49:28;10.80;99.90
29237;DHT22;16266;50.866;4.398;2023-11-21T02:51:54;10.80;99.90
29237;DHT22;16266;50.866;4.398;2023-11-21T02:54:21;10.80;99.90
29237;DHT22;16266;50.866;4.398;2023-11-21T02:56:48;10.90;99.90
29237;DHT22;16266;50.866;4.398;2023-11-21T02:59:15;10.90;99.90
29237;DHT22;16266;50.866;4.398;2023-11-21T03:01:41;11.00;99.90
29237;DHT22;16266;50.866;4.398;2023-11-21T03:04:07;11.10;99.90
29237;DHT22;16266;50.866;4.398;2023-11-21T03:06:33;11.00;99.90
29237;DHT22;16266;50.866;4.398;2023-11-21T03:08:59;11.10;99.90
29237;DHT22;16266;50.866;4.398;2023-11-21T03:11:25;11.10;99.90
29237;DHT22;16266;50.866;4.398;2023-11-21T03:13:51;11.20;99.90
29237;DHT22;16266;50.866;4.398;2023-11-21T03:16:16;11.20;99.90
29237;DHT22;16266;50.866;4.398;2023-11-21T03:18:42;11.20;99.90
29237;DHT22;16266;50.866;4.398;2023-11-21T03:21:08;11.20;99.90
29237;DHT22;16266;50.866;4.398;2023-11-21T03:23:36;11.30;99.90
29237;DHT22;16266;50.866;4.398;2023-11-21T03:26:03;11.30;99.90
29237;DHT22;16266;50.866;4.398;2023-11-21T03:28:29;11.40;99.90
29237;DHT22;16266;50.866;4.398;2023-11-21T03:30:55;11.40;99.90
29237;DHT22;16266;50.866;4.398;2023-11-21T03:33:21;11.50;99.90
29237;DHT22;16266;50.866;4.398;2023-11-21T03:35:48;11.40;99.90
29237;DHT22;16266;50.866;4.398;2023-11-21T03:38:17;11.40;99.90
29237;DHT22;16266;50.866;4.398;2023-11-21T03:40:43;11.50;99.90
29237;DHT22;16266;50.866;4.398;2023-11-21T03:43:08;11.40;99.90
29237;DHT22;16266;50.866;4.398;2023-11-21T03:45:34;11.50;99.90
29237;DHT22;16266;50.866;4.398;2023-11-21T03:48:00;11.40;99.90
29237;DHT22;16266;50.866;4.398;2023-11-21T03:50:28;11.40;99.90
29237;DHT22;16266;50.866;4.398;2023-11-21T03:52:54;11.40;99.90
29237;DHT22;16266;50.866;4.398;2023-11-21T03:55:20;11.40;99.90
29237;DHT22;16266;50.866;4.398;2023-11-21T03:57:45;11.40;99.90
29237;DHT22;16266;50.866;4.398;2023-11-21T04:00:11;11.40;99.90
29237;DHT22;16266;50.866;4.398;2023-11-21T04:02:38;11.40;99.90
29237;DHT22;16266;50.866;4.398;2023-11-21T04:05:05;11.40;99.90
29237;DHT22;16266;50.866;4.398;2023-11-21T04:07:32;11.30;99.90
29237;DHT22;16266;50.866;4.398;2023-11-21T04:09:59;11.40;99.90
29237;DHT22;16266;50.866;4.398;2023-11-21T04:12:25;11.40;99.90
29237;DHT22;16266;50.866;4.398;2023-11-21T04:14:50;11.50;99.90
29237;DHT22;16266;50.866;4.398;2023-11-21T04:17:18;11.50;99.90
29237;DHT22;16266;50.866;4.398;2023-11-21T04:19:44;11.50;99.90
29237;DHT22;16266;50.866;4.398;2023-11-21T04:22:12;11.50;99.90
29237;DHT22;16266;50.866;4.398;2023-11-21T04:24:38;11.50;99.90
29237;DHT22;16266;50.866;4.398;2023-11-21T04:27:05;11.40;99.90
29237;DHT22;16266;50.866;4.398;2023-11-21T04:29:30;11.40;99.90
29237;DHT22;16266;50.866;4.398;2023-11-21T04:31:56;11.40;99.90
29237;DHT22;16266;50.866;4.398;2023-11-21T04:34:21;11.40;99.90
29237;DHT22;16266;50.866;4.398;2023-11-21T04:36:47;11.40;99.90
29237;DHT22;16266;50.866;4.398;2023-11-21T04:39:13;11.40;99.90
29237;DHT22;16266;50.866;4.398;2023-11-21T04:41:39;11.40;99.90
29237;DHT22;16266;50.866;4.398;2023-11-21T04:44:06;11.40;99.90
29237;DHT22;16266;50.866;4.398;2023-11-21T04:46:31;11.40;99.90
29237;DHT22;16266;50.866;4.398;2023-11-21T04:48:58;11.40;99.90
29237;DHT22;16266;50.866;4.398;2023-11-21T04:51:23;11.40;99.90
29237;DHT22;16266;50.866;4.398;2023-11-21T04:53:49;11.50;99.90
29237;DHT22;16266;50.866;4.398;2023-11-21T04:56:15;11.40;99.90
29237;DHT22;16266;50.866;4.398;2023-11-21T04:58:41;11.50;99.90
29237;DHT22;16266;50.866;4.398;2023-11-21T05:01:07;11.40;99.90
29237;DHT22;16266;50.866;4.398;2023-11-21T05:03:33;11.40;99.90
29237;DHT22;16266;50.866;4.398;2023-11-21T05:06:00;11.40;99.90
29237;DHT22;16266;50.866;4.398;2023-11-21T05:08:25;11.50;99.90
29237;DHT22;16266;50.866;4.398;2023-11-21T05:10:52;11.50;99.90
29237;DHT22;16266;50.866;4.398;2023-11-21T05:13:18;11.50;99.90
29237;DHT22;16266;50.866;4.398;2023-11-21T05:15:46;11.50;99.90
29237;DHT22;16266;50.866;4.398;2023-11-21T05:18:13;11.60;99.90
29237;DHT22;16266;50.866;4.398;2023-11-21T05:20:39;11.60;99.90
29237;DHT22;16266;50.866;4.398;2023-11-21T05:23:06;11.60;99.90
29237;DHT22;16266;50.866;4.398;2023-11-21T05:25:33;11.70;99.90
29237;DHT22;16266;50.866;4.398;2023-11-21T05:27:59;11.70;99.90
29237;DHT22;16266;50.866;4.398;2023-11-21T05:30:27;11.70;99.90
29237;DHT22;16266;50.866;4.398;2023-11-21T05:32:53;11.70;99.90
29237;DHT22;16266;50.866;4.398;2023-11-21T05:35:19;11.80;99.90
29237;DHT22;16266;50.866;4.398;2023-11-21T05:37:46;11.80;99.90
29237;DHT22;16266;50.866;4.398;2023-11-21T05:40:13;11.80;99.90
29237;DHT22;16266;50.866;4.398;2023-11-21T05:42:40;11.80;99.90
29237;DHT22;16266;50.866;4.398;2023-11-21T05:45:06;11.90;99.90
29237;DHT22;16266;50.866;4.398;2023-11-21T05:47:36;11.80;99.90
29237;DHT22;16266;50.866;4.398;2023-11-21T05:50:02;11.80;99.90
29237;DHT22;16266;50.866;4.398;2023-11-21T05:52:28;11.70;99.90
29237;DHT22;16266;50.866;4.398;2023-11-21T05:54:54;11.70;99.90
29237;DHT22;16266;50.866;4.398;2023-11-21T05:57:19;11.70;99.90
29237;DHT22;16266;50.866;4.398;2023-11-21T05:59:45;11.80;99.90
29237;DHT22;16266;50.866;4.398;2023-11-21T06:02:11;11.80;99.90
29237;DHT22;16266;50.866;4.398;2023-11-21T06:04:37;11.80;99.90
29237;DHT22;16266;50.866;4.398;2023-11-21T06:07:02;11.80;99.90
29237;DHT22;16266;50.866;4.398;2023-11-21T06:09:28;11.60;99.90
29237;DHT22;16266;50.866;4.398;2023-11-21T06:11:54;11.70;99.90
29237;DHT22;16266;50.866;4.398;2023-11-21T06:14:19;11.70;99.90
29237;DHT22;16266;50.866;4.398;2023-11-21T06:16:47;11.70;99.90
29237;DHT22;16266;50.866;4.398;2023-11-21T06:19:12;11.70;99.90
29237;DHT22;16266;50.866;4.398;2023-11-21T06:21:38;11.70;99.90
29237;DHT22;16266;50.866;4.398;2023-11-21T06:24:04;11.80;99.90
29237;DHT22;16266;50.866;4.398;2023-11-21T06:26:30;11.90;99.90
29237;DHT22;16266;50.866;4.398;2023-11-21T06:28:57;11.90;99.90
29237;DHT22;16266;50.866;4.398;2023-11-21T06:31:23;11.90;99.90
29237;DHT22;16266;50.866;4.398;2023-11-21T06:33:48;12.00;99.90
29237;DHT22;16266;50.866;4.398;2023-11-21T06:36:15;12.00;99.90
29237;DHT22;16266;50.866;4.398;2023-11-21T06:38:40;11.90;99.90
29237;DHT22;16266;50.866;4.398;2023-11-21T06:41:06;12.00;99.90
29237;DHT22;16266;50.866;4.398;2023-11-21T06:43:32;12.00;99.90
29237;DHT22;16266;50.866;4.398;2023-11-21T06:45:58;11.90;99.90
29237;DHT22;16266;50.866;4.398;2023-11-21T06:48:24;12.00;99.90
29237;DHT22;16266;50.866;4.398;2023-11-21T06:50:49;12.00;99.90
29237;DHT22;16266;50.866;4.398;2023-11-21T06:53:17;12.00;99.90
29237;DHT22;16266;50.866;4.398;2023-11-21T06:55:43;12.00;99.90
29237;DHT22;16266;50.866;4.398;2023-11-21T06:58:08;12.00;99.90
29237;DHT22;16266;50.866;4.398;2023-11-21T07:00:34;12.10;99.90
29237;DHT22;16266;50.866;4.398;2023-11-21T07:02:59;12.20;99.90
29237;DHT22;16266;50.866;4.398;2023-11-21T07:05:25;12.20;99.90
29237;DHT22;16266;50.866;4.398;2023-11-21T07:07:51;12.20;99.90
29237;DHT22;16266;50.866;4.398;2023-11-21T07:10:19;12.20;99.90
29237;DHT22;16266;50.866;4.398;2023-11-21T07:12:45;12.30;99.90
29237;DHT22;16266;50.866;4.398;2023-11-21T07:15:12;12.30;99.90
29237;DHT22;16266;50.866;4.398;2023-11-21T07:17:38;12.30;99.90
29237;DHT22;16266;50.866;4.398;2023-11-21T07:20:05;12.30;99.90
29237;DHT22;16266;50.866;4.398;2023-11-21T07:22:32;12.30;99.90
29237;DHT22;16266;50.866;4.398;2023-11-21T07:24:57;12.30;99.90
29237;DHT22;16266;50.866;4.398;2023-11-21T07:27:23;12.30;99.90
29237;DHT22;16266;50.866;4.398;2023-11-21T07:29:49;12.40;99.90
29237;DHT22;16266;50.866;4.398;2023-11-21T07:32:14;12.40;99.90
29237;DHT22;16266;50.866;4.398;2023-11-21T07:34:40;12.40;99.90
29237;DHT22;16266;50.866;4.398;2023-11-21T07:37:07;12.40;99.90
29237;DHT22;16266;50.866;4.398;2023-11-21T07:39:35;12.30;99.90
29237;DHT22;16266;50.866;4.398;2023-11-21T07:42:01;12.30;99.90
29237;DHT22;16266;50.866;4.398;2023-11-21T07:44:29;12.30;99.90
29237;DHT22;16266;50.866;4.398;2023-11-21T07:46:54;12.30;99.90
29237;DHT22;16266;50.866;4.398;2023-11-21T07:49:24;12.30;99.90
29237;DHT22;16266;50.866;4.398;2023-11-21T07:51:50;12.30;99.90
29237;DHT22;16266;50.866;4.398;2023-11-21T07:54:16;12.40;99.90
29237;DHT22;16266;50.866;4.398;2023-11-21T07:56:42;12.40;99.90
29237;DHT22;16266;50.866;4.398;2023-11-21T07:59:08;12.40;99.90
29237;DHT22;16266;50.866;4.398;2023-11-21T08:01:33;12.40;99.90
29237;DHT22;16266;50.866;4.398;2023-11-21T08:03:59;12.50;99.90
29237;DHT22;16266;50.866;4.398;2023-11-21T08:06:29;12.50;99.90
29237;DHT22;16266;50.866;4.398;2023-11-21T08:08:56;12.50;99.90
29237;DHT22;16266;50.866;4.398;2023-11-21T08:11:22;12.30;99.90
29237;DHT22;16266;50.866;4.398;2023-11-21T08:13:49;12.30;99.90
29237;DHT22;16266;50.866;4.398;2023-11-21T08:16:14;12.40;99.90
29237;DHT22;16266;50.866;4.398;2023-11-21T08:18:41;12.40;99.90
29237;DHT22;16266;50.866;4.398;2023-11-21T08:21:07;12.40;99.90
29237;DHT22;16266;50.866;4.398;2023-11-21T08:23:33;12.50;99.90
29237;DHT22;16266;50.866;4.398;2023-11-21T08:26:00;12.50;99.90
29237;DHT22;16266;50.866;4.398;2023-11-21T08:28:27;12.50;99.90
29237;DHT22;16266;50.866;4.398;2023-11-21T08:30:53;12.60;99.90
29237;DHT22;16266;50.866;4.398;2023-11-21T08:33:19;12.60;99.90
29237;DHT22;16266;50.866;4.398;2023-11-21T08:35:45;12.70;99.90
29237;DHT22;16266;50.866;4.398;2023-11-21T08:38:11;12.60;99.90
29237;DHT22;16266;50.866;4.398;2023-11-21T08:40:37;12.60;99.90
29237;DHT22;16266;50.866;4.398;2023-11-21T08:43:03;12.60;99.90
29237;DHT22;16266;50.866;4.398;2023-11-21T08:45:30;12.60;99.90
29237;DHT22;16266;50.866;4.398;2023-11-21T08:47:56;12.50;99.90
29237;DHT22;16266;50.866;4.398;2023-11-21T08:50:22;12.60;99.90
29237;DHT22;16266;50.866;4.398;2023-11-21T08:52:47;12.60;99.90
29237;DHT22;16266;50.866;4.398;2023-11-21T08:55:14;12.60;99.90
29237;DHT22;16266;50.866;4.398;2023-11-21T08:57:41;12.70;99.90
29237;DHT22;16266;50.866;4.398;2023-11-21T09:00:09;12.80;99.90
29237;DHT22;16266;50.866;4.398;2023-11-21T09:02:41;12.80;99.90
29237;DHT22;16266;50.866;4.398;2023-11-21T09:05:08;12.90;99.90
29237;DHT22;16266;50.866;4.398;2023-11-21T09:07:35;12.90;99.90
29237;DHT22;16266;50.866;4.398;2023-11-21T09:10:01;13.00;99.90
29237;DHT22;16266;50.866;4.398;2023-11-21T09:12:27;12.90;99.90
29237;DHT22;16266;50.866;4.398;2023-11-21T09:14:53;13.00;99.90
29237;DHT22;16266;50.866;4.398;2023-11-21T09:17:21;13.00;99.90
29237;DHT22;16266;50.866;4.398;2023-11-21T09:19:46;13.00;99.90
29237;DHT22;16266;50.866;4.398;2023-11-21T09:22:16;12.90;99.90
29237;DHT22;16266;50.866;4.398;2023-11-21T09:24:42;12.80;99.90
29237;DHT22;16266;50.866;4.398;2023-11-21T09:27:08;12.70;99.90
29237;DHT22;16266;50.866;4.398;2023-11-21T09:29:35;12.70;99.90
29237;DHT22;16266;50.866;4.398;2023-11-21T09:32:00;12.90;99.90
29237;DHT22;16266;50.866;4.398;2023-11-21T09:34:26;12.90;99.90
29237;DHT22;16266;50.866;4.398;2023-11-21T09:36:52;13.00;99.90
29237;DHT22;16266;50.866;4.398;2023-11-21T09:39:19;13.10;99.90
29237;DHT22;16266;50.866;4.398;2023-11-21T09:41:50;13.20;99.90
29237;DHT22;16266;50.866;4.398;2023-11-21T09:44:18;13.30;99.90
29237;DHT22;16266;50.866;4.398;2023-11-21T09:46:47;13.40;99.90
29237;DHT22;16266;50.866;4.398;2023-11-21T09:49:15;13.40;99.90
29237;DHT22;16266;50.866;4.398;2023-11-21T09:51:43;13.30;99.90
29237;DHT22;16266;50.866;4.398;2023-11-21T09:54:10;13.20;99.90
29237;DHT22;16266;50.866;4.398;2023-11-21T09:56:39;13.00;99.90
29237;DHT22;16266;50.866;4.398;2023-11-21T09:59:06;13.10;99.90
29237;DHT22;16266;50.866;4.398;2023-11-21T10:01:36;13.10;99.90
29237;DHT22;16266;50.866;4.398;2023-11-21T10:04:03;13.10;99.90
29237;DHT22;16266;50.866;4.398;2023-11-21T10:06:28;13.10;99.90
29237;DHT22;16266;50.866;4.398;2023-11-21T10:08:56;12.80;99.90
29237;DHT22;16266;50.866;4.398;2023-11-21T10:11:25;12.60;99.90
29237;DHT22;16266;50.866;4.398;2023-11-21T10:13:56;12.40;99.90
29237;DHT22;16266;50.866;4.398;2023-11-21T10:16:26;12.20;99.90
29237;DHT22;16266;50.866;4.398;2023-11-21T10:18:53;12.00;99.90
29237;DHT22;16266;50.866;4.398;2023-11-21T10:21:22;12.00;99.90
29237;DHT22;16266;50.866;4.398;2023-11-21T10:23:50;12.10;99.90
29237;DHT22;16266;50.866;4.398;2023-11-21T10:26:18;12.10;99.90
29237;DHT22;16266;50.866;4.398;2023-11-21T10:28:57;12.30;99.90
29237;DHT22;16266;50.866;4.398;2023-11-21T10:31:23;12.20;99.90
29237;DHT22;16266;50.866;4.398;2023-11-21T10:33:50;12.40;99.90
29237;DHT22;16266;50.866;4.398;2023-11-21T10:36:27;12.60;99.90
29237;DHT22;16266;50.866;4.398;2023-11-21T10:38:54;12.70;99.90
29237;DHT22;16266;50.866;4.398;2023-11-21T10:41:20;12.70;99.90
29237;DHT22;16266;50.866;4.398;2023-11-21T10:43:46;13.00;99.90
29237;DHT22;16266;50.866;4.398;2023-11-21T10:46:13;13.00;99.90
29237;DHT22;16266;50.866;4.398;2023-11-21T10:48:42;13.20;99.90
29237;DHT22;16266;50.866;4.398;2023-11-21T10:51:08;13.40;99.90
29237;DHT22;16266;50.866;4.398;2023-11-21T10:53:38;13.20;99.90
29237;DHT22;16266;50.866;4.398;2023-11-21T10:56:06;13.40;99.90
29237;DHT22;16266;50.866;4.398;2023-11-21T10:58:35;13.30;99.90
29237;DHT22;16266;50.866;4.398;2023-11-21T11:01:02;13.10;99.90
29237;DHT22;16266;50.866;4.398;2023-11-21T11:03:31;13.20;99.90
29237;DHT22;16266;50.866;4.398;2023-11-21T11:05:59;13.40;99.90
29237;DHT22;16266;50.866;4.398;2023-11-21T11:08:26;13.70;99.90
29237;DHT22;16266;50.866;4.398;2023-11-21T11:10:53;14.00;99.90
29237;DHT22;16266;50.866;4.398;2023-11-21T11:13:18;14.00;99.90
29237;DHT22;16266;50.866;4.398;2023-11-21T11:15:47;13.70;99.90
29237;DHT22;16266;50.866;4.398;2023-11-21T11:18:14;13.70;99.90
29237;DHT22;16266;50.866;4.398;2023-11-21T11:20:43;13.70;99.90
29237;DHT22;16266;50.866;4.398;2023-11-21T11:26:08;13.50;99.90
29237;DHT22;16266;50.866;4.398;2023-11-21T11:34:32;13.30;99.90
29237;DHT22;16266;50.866;4.398;2023-11-21T11:37:03;13.40;99.90
29237;DHT22;16266;50.866;4.398;2023-11-21T11:39:37;13.60;99.90
29237;DHT22;16266;50.866;4.398;2023-11-21T11:42:06;13.80;99.90
29237;DHT22;16266;50.866;4.398;2023-11-21T11:47:25;13.80;99.90
29237;DHT22;16266;50.866;4.398;2023-11-21T11:50:12;13.70;99.90
29237;DHT22;16266;50.866;4.398;2023-11-21T11:52:53;13.40;99.90
29237;DHT22;16266;50.866;4.398;2023-11-21T11:55:22;13.10;99.90
29237;DHT22;16266;50.866;4.398;2023-11-21T11:57:50;12.90;99.90
29237;DHT22;16266;50.866;4.398;2023-11-21T12:00:20;12.80;99.90
29237;DHT22;16266;50.866;4.398;2023-11-21T12:02:52;12.70;99.90
29237;DHT22;16266;50.866;4.398;2023-11-21T12:05:21;12.60;99.90
29237;DHT22;16266;50.866;4.398;2023-11-21T12:07:54;12.50;99.90
29237;DHT22;16266;50.866;4.398;2023-11-21T12:10:21;12.40;99.90
29237;DHT22;16266;50.866;4.398;2023-11-21T12:12:57;12.40;99.90
29237;DHT22;16266;50.866;4.398;2023-11-21T12:15:24;12.40;99.90
29237;DHT22;16266;50.866;4.398;2023-11-21T12:17:51;12.50;99.90
29237;DHT22;16266;50.866;4.398;2023-11-21T12:20:22;12.70;99.90
29237;DHT22;16266;50.866;4.398;2023-11-21T12:22:49;12.70;99.90
29237;DHT22;16266;50.866;4.398;2023-11-21T12:25:20;12.70;99.90
29237;DHT22;16266;50.866;4.398;2023-11-21T12:27:47;12.70;99.90
29237;DHT22;16266;50.866;4.398;2023-11-21T12:30:15;12.50;99.90
29237;DHT22;16266;50.866;4.398;2023-11-21T12:32:49;12.30;99.90
29237;DHT22;16266;50.866;4.398;2023-11-21T12:35:16;12.30;99.90
29237;DHT22;16266;50.866;4.398;2023-11-21T12:37:45;12.40;99.90
29237;DHT22;16266;50.866;4.398;2023-11-21T12:40:12;12.40;99.90
29237;DHT22;16266;50.866;4.398;2023-11-21T12:42:47;12.50;99.90
29237;DHT22;16266;50.866;4.398;2023-11-21T12:47:47;13.00;99.90
29237;DHT22;16266;50.866;4.398;2023-11-21T12:50:13;13.00;99.90
29237;DHT22;16266;50.866;4.398;2023-11-21T12:52:43;13.00;99.90
29237;DHT22;16266;50.866;4.398;2023-11-21T12:55:22;13.00;99.90
29237;DHT22;16266;50.866;4.398;2023-11-21T12:57:49;12.70;99.90
29237;DHT22;16266;50.866;4.398;2023-11-21T13:00:33;12.70;99.90
29237;DHT22;16266;50.866;4.398;2023-11-21T13:03:07;12.60;99.90
29237;DHT22;16266;50.866;4.398;2023-11-21T13:05:37;12.50;99.90
29237;DHT22;16266;50.866;4.398;2023-11-21T13:08:04;12.40;99.90
29237;DHT22;16266;50.866;4.398;2023-11-21T13:10:34;12.20;99.90
29237;DHT22;16266;50.866;4.398;2023-11-21T13:13:02;12.10;99.90
29237;DHT22;16266;50.866;4.398;2023-11-21T13:15:31;12.10;99.90
29237;DHT22;16266;50.866;4.398;2023-11-21T13:17:58;12.10;99.90
29237;DHT22;16266;50.866;4.398;2023-11-21T13:20:24;12.00;99.90
29237;DHT22;16266;50.866;4.398;2023-11-21T13:22:51;12.00;99.90
29237;DHT22;16266;50.866;4.398;2023-11-21T13:25:21;12.00;99.90
29237;DHT22;16266;50.866;4.398;2023-11-21T13:27:47;12.00;99.90
29237;DHT22;16266;50.866;4.398;2023-11-21T13:30:14;12.00;99.90
29237;DHT22;16266;50.866;4.398;2023-11-21T13:32:45;12.00;99.90
29237;DHT22;16266;50.866;4.398;2023-11-21T13:35:17;12.00;99.90
29237;DHT22;16266;50.866;4.398;2023-11-21T13:37:57;12.10;99.90
29237;DHT22;16266;50.866;4.398;2023-11-21T13:40:26;12.10;99.90
29237;DHT22;16266;50.866;4.398;2023-11-21T13:42:53;12.10;99.90
29237;DHT22;16266;50.866;4.398;2023-11-21T13:45:22;12.10;99.90
29237;DHT22;16266;50.866;4.398;2023-11-21T13:47:51;12.20;99.90
29237;DHT22;16266;50.866;4.398;2023-11-21T13:50:18;12.30;99.90
29237;DHT22;16266;50.866;4.398;2023-11-21T13:52:49;12.10;99.90
29237;DHT22;16266;50.866;4.398;2023-11-21T13:55:17;12.00;99.90
29237;DHT22;16266;50.866;4.398;2023-11-21T13:57:43;11.90;99.90
29237;DHT22;16266;50.866;4.398;2023-11-21T14:00:11;11.90;99.90
29237;DHT22;16266;50.866;4.398;2023-11-21T14:02:57;11.80;99.90
29237;DHT22;16266;50.866;4.398;2023-11-21T14:05:27;11.70;99.90
29237;DHT22;16266;50.866;4.398;2023-11-21T14:07:55;11.70;99.90
29237;DHT22;16266;50.866;4.398;2023-11-21T14:10:27;11.70;99.90
29237;DHT22;16266;50.866;4.398;2023-11-21T14:13:02;11.70;99.90
29237;DHT22;16266;50.866;4.398;2023-11-21T14:15:28;11.70;99.90
29237;DHT22;16266;50.866;4.398;2023-11-21T14:17:56;11.70;99.90
29237;DHT22;16266;50.866;4.398;2023-11-21T14:20:22;11.70;99.90
29237;DHT22;16266;50.866;4.398;2023-11-21T14:22:48;11.70;99.90
29237;DHT22;16266;50.866;4.398;2023-11-21T14:25:13;11.60;99.90
29237;DHT22;16266;50.866;4.398;2023-11-21T14:27:39;11.60;99.90
29237;DHT22;16266;50.866;4.398;2023-11-21T14:30:06;11.70;99.90
29237;DHT22;16266;50.866;4.398;2023-11-21T14:32:32;11.70;99.90
29237;DHT22;16266;50.866;4.398;2023-11-21T14:34:57;11.60;99.90
29237;DHT22;16266;50.866;4.398;2023-11-21T14:37:23;11.50;99.90
29237;DHT22;16266;50.866;4.398;2023-11-21T14:39:50;11.60;99.90
29237;DHT22;16266;50.866;4.398;2023-11-21T14:42:16;11.50;99.90
29237;DHT22;16266;50.866;4.398;2023-11-21T14:44:49;11.60;99.90
29237;DHT22;16266;50.866;4.398;2023-11-21T14:47:15;11.50;99.90
29237;DHT22;16266;50.866;4.398;2023-11-21T14:49:42;11.50;99.90
29237;DHT22;16266;50.866;4.398;2023-11-21T14:52:22;11.40;99.90
29237;DHT22;16266;50.866;4.398;2023-11-21T14:55:02;11.40;99.90
29237;DHT22;16266;50.866;4.398;2023-11-21T14:57:46;11.40;99.90
29237;DHT22;16266;50.866;4.398;2023-11-21T15:00:16;11.40;99.90
29237;DHT22;16266;50.866;4.398;2023-11-21T15:03:03;11.40;99.90
29237;DHT22;16266;50.866;4.398;2023-11-21T15:05:29;11.50;99.90
29237;DHT22;16266;50.866;4.398;2023-11-21T15:07:56;11.50;99.90
29237;DHT22;16266;50.866;4.398;2023-11-21T15:10:34;11.50;99.90
29237;DHT22;16266;50.866;4.398;2023-11-21T15:13:13;11.50;99.90
29237;DHT22;16266;50.866;4.398;2023-11-21T15:15:41;11.40;99.90
29237;DHT22;16266;50.866;4.398;2023-11-21T15:18:07;11.30;99.90
29237;DHT22;16266;50.866;4.398;2023-11-21T15:20:33;11.30;99.90
29237;DHT22;16266;50.866;4.398;2023-11-21T15:22:58;11.20;99.90
29237;DHT22;16266;50.866;4.398;2023-11-21T15:25:25;11.30;99.90
29237;DHT22;16266;50.866;4.398;2023-11-21T15:27:51;11.30;99.90
29237;DHT22;16266;50.866;4.398;2023-11-21T15:30:16;11.30;99.90
29237;DHT22;16266;50.866;4.398;2023-11-21T15:32:48;11.30;99.90
29237;DHT22;16266;50.866;4.398;2023-11-21T15:35:14;11.30;99.90
29237;DHT22;16266;50.866;4.398;2023-11-21T15:37:40;11.20;99.90
29237;DHT22;16266;50.866;4.398;2023-11-21T15:40:06;11.10;99.90
29237;DHT22;16266;50.866;4.398;2023-11-21T15:42:34;11.10;99.90
29237;DHT22;16266;50.866;4.398;2023-11-21T15:45:02;11.10;99.90